Egan, Illinois
Current Conditions -  °F | °C
As of 4:55 AM on Saturday 25 Oct 2014 (Local Time) from KFEP Reporting Station
Haze Haze  
Wind Chill: 55°   Ceiling: Unl
Heat Index: 55°   Visibility: 3mi
Dew Point: 54°   Wind: 3mph
Humidity: 96%   Direction: 270°W
Pressure: 29.94"   Gusts: NA
Location:  42.1509°N, 89.4005°W
Report Text: KFEP 250955Z AUTO 27003KT 3SM BR SCT009 13/12 A2994 RMK AO2 T01290122
Loading
Personal Weather Stations






























Interactive Weather Map
Tropical Storm Tracking
New forecast layout! Learn more

10-Day Weather Forecast

Advertisements
Track Severe Weather on mobile